createdAt,value
2023-03-02T00:01:47.137Z,40.78
2023-03-02T00:05:24.876Z,39.60
2023-03-02T00:07:53.666Z,40.08
2023-03-02T00:10:20.737Z,40.83
2023-03-02T00:12:47.777Z,44.80
2023-03-02T00:15:14.620Z,43.92
2023-03-02T00:17:41.680Z,50.80
2023-03-02T00:20:12.271Z,43.33
2023-03-02T00:22:40.316Z,47.28
2023-03-02T00:25:07.605Z,40.40
2023-03-02T00:27:35.056Z,45.95
2023-03-02T00:30:02.280Z,48.17
2023-03-02T00:32:29.252Z,52.42
2023-03-02T00:34:56.162Z,54.35
2023-03-02T00:37:25.755Z,56.07
2023-03-02T00:39:55.232Z,57.13
2023-03-02T00:42:22.506Z,54.88
2023-03-02T00:44:49.361Z,60.00
2023-03-02T00:47:16.290Z,49.03
2023-03-02T00:49:49.641Z,54.87
2023-03-02T00:52:17.216Z,58.30
2023-03-02T00:54:44.346Z,56.53
2023-03-02T00:57:11.316Z,51.92
2023-03-02T00:59:39.453Z,57.30
2023-03-02T01:02:18.589Z,56.47
2023-03-02T01:04:46.889Z,53.17
2023-03-02T01:07:16.400Z,65.50
2023-03-02T01:09:44.835Z,61.78
2023-03-02T01:12:12.185Z,60.03
2023-03-02T01:14:41.927Z,47.80
2023-03-02T01:17:10.309Z,56.58
2023-03-02T01:19:38.049Z,62.38
2023-03-02T01:22:06.116Z,62.40
2023-03-02T01:24:33.844Z,58.22
2023-03-02T01:27:00.930Z,61.23
2023-03-02T01:29:28.035Z,65.18
2023-03-02T01:31:54.980Z,61.75
2023-03-02T01:34:21.956Z,54.03
2023-03-02T01:36:48.847Z,56.90
2023-03-02T01:39:16.025Z,53.60
2023-03-02T01:41:45.065Z,61.78
2023-03-02T01:44:34.444Z,65.25
2023-03-02T01:47:13.804Z,67.78
2023-03-02T01:50:15.346Z,67.15
2023-03-02T01:52:42.646Z,64.97
2023-03-02T01:55:13.224Z,60.40
2023-03-02T01:57:45.721Z,66.72
2023-03-02T02:00:23.986Z,62.13
2023-03-02T02:02:53.229Z,62.85
2023-03-02T02:05:25.639Z,69.63
2023-03-02T02:07:53.098Z,67.40
2023-03-02T02:10:20.245Z,68.07
2023-03-02T02:12:47.426Z,55.58
2023-03-02T02:15:14.320Z,60.63
2023-03-02T02:17:41.898Z,67.53
2023-03-02T02:20:30.372Z,64.53
2023-03-02T02:23:22.488Z,62.72
2023-03-02T02:25:58.425Z,65.88
2023-03-02T02:29:07.892Z,65.38
2023-03-02T02:31:57.472Z,65.27
2023-03-02T02:34:32.939Z,67.43
2023-03-02T02:37:06.596Z,70.13
2023-03-02T02:39:37.622Z,65.72
2023-03-02T02:42:11.962Z,68.28
2023-03-02T02:44:39.623Z,65.23
2023-03-02T02:47:18.802Z,65.63
2023-03-02T02:49:48.503Z,64.78
2023-03-02T02:52:19.739Z,61.45
2023-03-02T02:54:50.095Z,66.68
2023-03-02T02:57:19.485Z,65.83
2023-03-02T02:59:53.840Z,63.55
2023-03-02T03:02:33.090Z,73.05
2023-03-02T03:05:08.994Z,65.35
2023-03-02T03:07:36.005Z,61.70
2023-03-02T03:10:40.222Z,48.70
2023-03-02T03:13:10.238Z,51.75
2023-03-02T03:15:37.658Z,62.03
2023-03-02T03:18:04.948Z,52.53
2023-03-02T03:20:32.981Z,54.92
2023-03-02T03:23:00.797Z,59.97
2023-03-02T03:25:32.100Z,53.83
2023-03-02T03:27:59.721Z,63.55
2023-03-02T03:30:26.744Z,55.33
2023-03-02T03:32:53.664Z,54.25
2023-03-02T03:35:20.545Z,55.50
2023-03-02T03:37:48.570Z,51.00
2023-03-02T03:40:16.475Z,52.92
2023-03-02T03:42:45.142Z,53.47
2023-03-02T03:45:12.795Z,58.15
2023-03-02T03:47:40.722Z,50.83
2023-03-02T03:50:09.232Z,47.63
2023-03-02T03:52:36.741Z,54.25
2023-03-02T03:55:12.483Z,51.72
2023-03-02T03:57:41.042Z,51.45
2023-03-02T04:00:15.021Z,44.10
2023-03-02T04:02:46.850Z,54.33
2023-03-02T04:05:14.679Z,55.75
2023-03-02T04:07:41.798Z,48.33
2023-03-02T04:10:09.999Z,46.85
2023-03-02T04:12:40.204Z,53.97
2023-03-02T04:15:09.505Z,52.85
2023-03-02T04:17:36.798Z,52.50
2023-03-02T04:20:07.681Z,51.28
2023-03-02T04:22:35.226Z,56.97
2023-03-02T04:25:02.549Z,55.53
2023-03-02T04:27:29.566Z,54.47
2023-03-02T04:29:56.579Z,55.92
2023-03-02T04:32:24.074Z,48.17
2023-03-02T04:34:54.738Z,43.83
2023-03-02T04:37:21.969Z,52.03
2023-03-02T04:39:51.667Z,51.20
2023-03-02T04:42:19.837Z,55.70
2023-03-02T04:44:47.201Z,55.67
2023-03-02T04:47:14.322Z,50.45
2023-03-02T04:49:41.455Z,55.17
2023-03-02T04:52:09.413Z,47.10
2023-03-02T04:54:36.575Z,55.55
2023-03-02T04:57:03.666Z,49.13
2023-03-02T04:59:30.460Z,60.20
2023-03-02T05:02:00.396Z,54.03
2023-03-02T05:04:29.138Z,46.38
2023-03-02T05:06:57.038Z,50.55
2023-03-02T05:09:27.798Z,46.78
2023-03-02T05:11:56.653Z,48.03
2023-03-02T05:14:24.019Z,49.73
2023-03-02T05:16:51.141Z,48.72
2023-03-02T05:19:18.485Z,47.42
2023-03-02T05:21:45.980Z,41.35
2023-03-02T05:24:13.265Z,43.63
2023-03-02T05:26:40.141Z,44.43
2023-03-02T05:29:07.317Z,47.20
2023-03-02T05:31:38.137Z,47.38
2023-03-02T05:34:07.734Z,34.85
2023-03-02T05:36:35.359Z,44.05
2023-03-02T05:39:03.788Z,46.20
2023-03-02T05:41:30.909Z,43.58
2023-03-02T05:43:58.004Z,39.35
2023-03-02T05:46:25.576Z,39.58
2023-03-02T05:48:52.706Z,43.83
2023-03-02T05:51:19.811Z,43.90
2023-03-02T05:53:46.874Z,43.40
2023-03-02T05:56:13.743Z,45.13
2023-03-02T05:58:40.602Z,43.47
2023-03-02T06:01:15.461Z,42.05
2023-03-02T06:03:43.374Z,46.83
2023-03-02T06:06:14.159Z,50.83
2023-03-02T06:08:43.795Z,51.22
2023-03-02T06:11:11.704Z,48.15
2023-03-02T06:13:39.511Z,46.42
2023-03-02T06:16:06.705Z,35.67
2023-03-02T06:18:34.336Z,51.55
2023-03-02T06:21:01.559Z,51.08
2023-03-02T06:23:31.655Z,47.15
2023-03-02T06:25:59.384Z,42.95
2023-03-02T06:28:26.815Z,52.30
2023-03-02T06:30:53.834Z,50.85
2023-03-02T06:33:21.437Z,54.63
2023-03-02T06:35:49.103Z,56.55
2023-03-02T06:38:16.245Z,51.00
2023-03-02T06:40:43.197Z,51.27
2023-03-02T06:43:10.058Z,62.13
2023-03-02T06:45:37.783Z,53.70
2023-03-02T06:48:05.654Z,53.85
2023-03-02T06:50:33.022Z,59.97
2023-03-02T06:53:00.279Z,55.17
2023-03-02T06:55:27.535Z,41.97
2023-03-02T06:57:54.369Z,49.47
2023-03-02T07:00:28.226Z,54.40
2023-03-02T07:02:56.218Z,54.22
2023-03-02T07:05:24.542Z,53.50
2023-03-02T07:07:52.275Z,60.70
2023-03-02T07:10:19.413Z,49.60
2023-03-02T07:12:46.301Z,52.10
2023-03-02T07:15:14.348Z,47.70
2023-03-02T07:17:44.230Z,53.80
2023-03-02T07:20:14.435Z,47.00
2023-03-02T07:22:42.350Z,46.58
2023-03-02T07:25:10.923Z,49.45
2023-03-02T07:27:38.677Z,55.38
2023-03-02T07:30:06.986Z,56.07
2023-03-02T07:32:33.969Z,56.85
2023-03-02T07:35:00.954Z,47.20
2023-03-02T07:37:27.919Z,47.90
2023-03-02T07:39:59.260Z,51.05
2023-03-02T07:42:30.827Z,51.53
2023-03-02T07:44:59.137Z,45.05
2023-03-02T07:47:25.994Z,41.95
2023-03-02T07:49:52.801Z,43.65
2023-03-02T07:52:19.629Z,58.03
2023-03-02T07:54:46.597Z,46.07
2023-03-02T07:57:16.178Z,48.03
2023-03-02T07:59:44.033Z,47.33
2023-03-02T08:02:20.305Z,47.25
2023-03-02T08:04:47.297Z,49.15
2023-03-02T08:07:14.322Z,44.30
2023-03-02T08:09:41.203Z,47.35
2023-03-02T08:12:08.090Z,42.85
2023-03-02T08:14:35.080Z,46.40
2023-03-02T08:17:03.704Z,47.08
2023-03-02T08:19:31.150Z,42.43
2023-03-02T08:21:58.542Z,37.65
2023-03-02T08:24:25.329Z,43.40
2023-03-02T08:26:52.310Z,45.45
2023-03-02T08:29:19.301Z,44.40
2023-03-02T08:31:46.342Z,36.57
2023-03-02T08:34:13.196Z,43.83
2023-03-02T08:36:41.073Z,30.42
2023-03-02T08:39:08.071Z,35.13
2023-03-02T08:41:35.602Z,39.65
2023-03-02T08:44:03.009Z,44.43
2023-03-02T08:46:30.761Z,37.03
2023-03-02T08:48:57.516Z,37.38
2023-03-02T08:51:25.970Z,35.90
2023-03-02T08:53:55.520Z,31.83
2023-03-02T08:56:27.266Z,35.03
2023-03-02T08:58:56.025Z,41.95
2023-03-02T09:01:26.151Z,32.35
2023-03-02T09:03:53.038Z,38.40
2023-03-02T09:06:19.933Z,35.75
2023-03-02T09:08:47.144Z,34.70
2023-03-02T09:11:14.154Z,31.75
2023-03-02T09:13:41.465Z,29.80
2023-03-02T09:16:08.663Z,28.25
2023-03-02T09:18:36.300Z,31.20
2023-03-02T09:21:03.663Z,32.20
2023-03-02T09:23:30.937Z,27.50
2023-03-02T09:25:57.859Z,31.85
2023-03-02T09:28:25.358Z,34.13
2023-03-02T09:30:56.885Z,33.13
2023-03-02T09:33:24.262Z,36.20
2023-03-02T09:35:51.214Z,28.30
2023-03-02T09:38:19.169Z,30.10
2023-03-02T09:41:00.836Z,31.63
2023-03-02T09:43:45.101Z,30.90
2023-03-02T09:46:18.170Z,22.93
2023-03-02T09:49:10.029Z,32.97
2023-03-02T09:51:45.456Z,23.77
2023-03-02T09:54:16.119Z,29.52
2023-03-02T09:56:54.449Z,33.00
2023-03-02T09:59:47.490Z,29.87
2023-03-02T10:02:30.359Z,26.10
2023-03-02T10:05:00.861Z,25.30
2023-03-02T10:07:31.177Z,26.08
2023-03-02T10:10:07.130Z,24.67
2023-03-02T10:13:04.655Z,26.53
2023-03-02T10:15:40.244Z,25.60
2023-03-02T10:18:38.328Z,21.98
2023-03-02T10:21:21.708Z,25.30
2023-03-02T10:24:03.665Z,29.50
2023-03-02T10:26:41.658Z,26.80
2023-03-02T10:29:37.280Z,27.95
2023-03-02T10:32:10.146Z,28.20
2023-03-02T10:34:38.603Z,22.98
2023-03-02T10:37:17.374Z,28.00
2023-03-02T10:39:44.245Z,24.33
2023-03-02T10:42:29.860Z,26.88
2023-03-02T10:45:06.135Z,30.10
2023-03-02T10:47:33.023Z,26.35
2023-03-02T10:49:59.878Z,27.58
2023-03-02T10:52:28.996Z,22.47
2023-03-02T10:55:04.906Z,24.83
2023-03-02T10:57:37.543Z,27.70
2023-03-02T11:00:24.406Z,26.63
2023-03-02T11:03:03.772Z,27.77
2023-03-02T11:05:44.467Z,25.77
2023-03-02T11:08:22.255Z,26.23
2023-03-02T11:10:59.860Z,21.42
2023-03-02T11:13:34.364Z,26.58
2023-03-02T11:16:25.605Z,28.92
2023-03-02T11:19:12.821Z,24.70
2023-03-02T11:21:49.142Z,25.73
2023-03-02T11:24:40.568Z,22.83
2023-03-02T11:27:24.170Z,25.25
2023-03-02T11:30:13.109Z,26.88
2023-03-02T11:32:50.269Z,22.33
2023-03-02T11:35:31.255Z,23.73
2023-03-02T11:38:10.237Z,20.02
2023-03-02T11:40:49.400Z,23.20
2023-03-02T11:43:16.317Z,22.92
2023-03-02T11:45:47.483Z,25.17
2023-03-02T11:48:31.801Z,20.50
2023-03-02T11:51:13.253Z,26.52
2023-03-02T11:53:52.695Z,23.92
2023-03-02T11:56:19.869Z,20.77
2023-03-02T11:58:52.403Z,19.73
2023-03-02T12:01:25.739Z,18.15
2023-03-02T12:03:53.379Z,21.33
2023-03-02T12:06:25.007Z,22.45
2023-03-02T12:08:54.999Z,20.25
2023-03-02T12:11:21.924Z,23.30
2023-03-02T12:13:54.937Z,18.63
2023-03-02T12:16:24.042Z,21.48
2023-03-02T12:18:53.963Z,18.42
2023-03-02T12:21:23.444Z,19.73
2023-03-02T12:23:50.199Z,18.10
2023-03-02T12:26:20.299Z,25.15
2023-03-02T12:29:07.611Z,18.13
2023-03-02T12:31:46.757Z,20.05
2023-03-02T12:34:34.167Z,16.13
2023-03-02T12:37:31.682Z,11.43
2023-03-02T12:40:21.813Z,15.05
2023-03-02T12:43:20.026Z,15.43
2023-03-02T12:46:17.560Z,22.60
2023-03-02T12:49:27.335Z,17.92
2023-03-02T12:52:03.702Z,13.87
2023-03-02T12:54:33.572Z,15.93
2023-03-02T12:57:20.345Z,13.30
2023-03-02T13:00:02.800Z,15.93
2023-03-02T13:02:32.466Z,23.20
2023-03-02T13:05:16.960Z,15.70
2023-03-02T13:07:53.510Z,16.25
2023-03-02T13:10:36.720Z,12.32
2023-03-02T13:13:18.584Z,13.63
2023-03-02T13:15:51.623Z,14.20
2023-03-02T13:18:20.644Z,16.57
2023-03-02T13:20:49.219Z,18.83
2023-03-02T13:23:17.620Z,23.08
2023-03-02T13:25:50.627Z,16.23
2023-03-02T13:28:30.800Z,14.32
2023-03-02T13:31:04.822Z,14.13
2023-03-02T13:33:35.448Z,25.05
2023-03-02T13:36:02.707Z,25.88
2023-03-02T13:38:36.505Z,25.33
2023-03-02T13:41:04.045Z,25.77
2023-03-02T13:43:30.844Z,22.43
2023-03-02T13:46:00.946Z,21.38
2023-03-02T13:48:31.487Z,22.48
2023-03-02T13:51:13.539Z,21.42
2023-03-02T13:53:59.821Z,30.25
2023-03-02T13:56:45.232Z,21.73
2023-03-02T13:59:17.749Z,20.33
2023-03-02T14:01:44.871Z,24.42
2023-03-02T14:04:21.663Z,27.38
2023-03-02T14:06:52.552Z,35.60
2023-03-02T14:09:19.683Z,19.27
2023-03-02T14:11:52.902Z,23.90
2023-03-02T14:14:23.241Z,21.30
2023-03-02T14:16:50.908Z,19.95
2023-03-02T14:19:18.691Z,22.85
2023-03-02T14:21:46.515Z,27.40
2023-03-02T14:24:13.470Z,20.08
2023-03-02T14:26:48.722Z,30.92
2023-03-02T14:29:31.620Z,30.52
2023-03-02T14:32:06.671Z,27.05
2023-03-02T14:34:36.100Z,24.43
2023-03-02T14:37:13.204Z,24.33
2023-03-02T19:37:37.479Z,21.08
2023-03-02T19:40:05.900Z,20.05
2023-03-02T19:42:34.785Z,23.80
2023-03-02T19:45:05.405Z,24.75
2023-03-02T19:47:32.184Z,25.17
2023-03-02T19:49:59.171Z,21.25
2023-03-02T19:52:26.074Z,21.00
2023-03-02T19:54:52.904Z,22.10
2023-03-02T19:57:20.323Z,22.90
2023-03-02T19:59:47.164Z,20.08
2023-03-02T20:02:15.108Z,22.02
2023-03-02T20:04:44.815Z,23.02
2023-03-02T20:07:11.756Z,26.27
2023-03-02T20:09:39.034Z,20.30
2023-03-02T20:12:07.729Z,22.45
2023-03-02T20:14:36.103Z,25.05
2023-03-02T20:17:04.162Z,22.73
2023-03-02T20:19:31.738Z,22.40
2023-03-02T20:21:59.233Z,24.88
2023-03-02T20:24:26.096Z,24.33
2023-03-02T20:26:53.242Z,26.80
2023-03-02T20:29:20.123Z,22.65
2023-03-02T20:31:47.040Z,22.27
2023-03-02T20:34:16.624Z,23.58
2023-03-02T20:36:47.516Z,21.75
2023-03-02T20:39:37.022Z,24.23
2023-03-02T20:42:06.438Z,24.17
2023-03-02T20:44:34.548Z,23.63
2023-03-02T20:47:08.437Z,24.45
2023-03-02T20:49:37.586Z,27.27
2023-03-02T20:52:06.403Z,26.50
2023-03-02T20:54:37.791Z,25.33
2023-03-02T20:57:05.692Z,25.67
2023-03-02T20:59:33.174Z,27.23
2023-03-02T21:02:00.704Z,26.42
2023-03-02T21:04:27.985Z,27.48
2023-03-02T21:06:55.124Z,29.15
2023-03-02T21:09:22.243Z,30.53
2023-03-02T21:11:49.179Z,35.13
2023-03-02T21:14:16.889Z,31.08
2023-03-02T21:16:45.330Z,29.40
2023-03-02T21:19:16.377Z,31.90
2023-03-02T21:21:43.833Z,29.67
2023-03-02T21:24:13.578Z,31.63
2023-03-02T21:26:41.591Z,29.45
2023-03-02T21:29:09.492Z,32.38
2023-03-02T21:31:36.558Z,32.33
2023-03-02T21:34:04.218Z,31.30
2023-03-02T21:36:32.139Z,29.80
2023-03-02T21:38:59.132Z,30.50
2023-03-02T21:41:25.950Z,32.90
2023-03-02T21:43:52.784Z,36.80
2023-03-02T21:46:22.941Z,35.93
2023-03-02T21:48:51.115Z,32.58
2023-03-02T21:51:19.254Z,39.95
2023-03-02T21:53:47.189Z,30.20
2023-03-02T21:56:20.651Z,34.03
2023-03-02T21:58:49.946Z,39.53
2023-03-02T22:01:17.385Z,35.97
2023-03-02T22:03:45.772Z,36.58
2023-03-02T22:06:24.841Z,28.98
2023-03-02T22:08:51.826Z,38.47
2023-03-02T22:11:22.692Z,37.47
2023-03-02T22:13:55.631Z,41.08
2023-03-02T22:16:27.557Z,38.85
2023-03-02T22:18:59.193Z,33.83
2023-03-02T22:21:38.586Z,36.33
2023-03-02T22:24:08.370Z,39.37
2023-03-02T22:26:47.483Z,40.83
2023-03-02T22:29:18.405Z,40.72
2023-03-02T22:31:50.545Z,37.20
2023-03-02T22:34:27.091Z,36.92
2023-03-02T22:37:02.823Z,41.83
2023-03-02T22:39:33.926Z,41.92
2023-03-02T22:42:21.798Z,42.60
2023-03-02T22:45:16.902Z,40.13
2023-03-02T22:47:45.302Z,30.33
2023-03-02T22:50:27.272Z,37.50
2023-03-02T22:52:56.075Z,36.85
2023-03-02T22:55:38.973Z,35.80
2023-03-02T22:58:31.518Z,38.83
2023-03-02T23:01:00.525Z,33.15
2023-03-02T23:03:44.033Z,38.03
2023-03-02T23:06:29.690Z,34.28
2023-03-02T23:08:59.675Z,32.20
2023-03-02T23:11:27.841Z,31.00
2023-03-02T23:13:55.823Z,33.67
2023-03-02T23:16:26.168Z,31.17
2023-03-02T23:18:56.086Z,32.60
2023-03-02T23:21:30.820Z,30.52
2023-03-02T23:23:57.598Z,31.40
2023-03-02T23:26:24.467Z,32.40
2023-03-02T23:28:51.493Z,30.70
2023-03-02T23:31:18.742Z,31.95
2023-03-02T23:33:45.885Z,32.67
2023-03-02T23:36:13.387Z,30.25
2023-03-02T23:38:41.420Z,28.02
2023-03-02T23:41:08.859Z,24.50
2023-03-02T23:43:36.194Z,27.83
2023-03-02T23:46:03.499Z,24.45
2023-03-02T23:48:30.578Z,23.85
2023-03-02T23:50:57.369Z,28.55
2023-03-02T23:53:24.370Z,27.70
2023-03-02T23:55:56.533Z,23.83
2023-03-02T23:58:24.143Z,24.27
